sensor_id;sensor_type;location;lat;lon;timestamp;pressure;altitude;pressure_sealevel;temperature;humidity
55171;BME280;41060;47.510;8.680;2023-11-21T00:00:00;96645.16;;;11.28;50.04
55171;BME280;41060;47.510;8.680;2023-11-21T00:02:28;96643.59;;;11.25;49.22
55171;BME280;41060;47.510;8.680;2023-11-21T00:04:55;96652.41;;;11.45;48.88
55171;BME280;41060;47.510;8.680;2023-11-21T00:07:22;96651.84;;;11.61;48.82
55171;BME280;41060;47.510;8.680;2023-11-21T00:09:49;96641.13;;;11.62;48.43
55171;BME280;41060;47.510;8.680;2023-11-21T00:12:16;96634.69;;;11.74;48.22
55171;BME280;41060;47.510;8.680;2023-11-21T00:14:43;96631.50;;;11.90;47.79
55171;BME280;41060;47.510;8.680;2023-11-21T00:17:10;96630.91;;;11.96;47.74
55171;BME280;41060;47.510;8.680;2023-11-21T00:19:36;96639.31;;;12.01;47.70
55171;BME280;41060;47.510;8.680;2023-11-21T00:22:04;96635.81;;;12.01;47.66
55171;BME280;41060;47.510;8.680;2023-11-21T00:24:32;96633.69;;;12.04;47.50
55171;BME280;41060;47.510;8.680;2023-11-21T00:26:58;96629.22;;;12.05;47.63
55171;BME280;41060;47.510;8.680;2023-11-21T00:29:25;96635.56;;;11.94;47.69
55171;BME280;41060;47.510;8.680;2023-11-21T00:31:52;96639.41;;;11.80;48.13
55171;BME280;41060;47.510;8.680;2023-11-21T00:34:19;96642.09;;;11.90;48.05
55171;BME280;41060;47.510;8.680;2023-11-21T00:36:45;96636.78;;;11.90;47.84
55171;BME280;41060;47.510;8.680;2023-11-21T00:39:14;96634.00;;;11.92;47.53
55171;BME280;41060;47.510;8.680;2023-11-21T00:41:40;96639.00;;;11.85;47.88
55171;BME280;41060;47.510;8.680;2023-11-21T00:44:07;96638.19;;;11.84;47.89
55171;BME280;41060;47.510;8.680;2023-11-21T00:46:34;96601.34;;;11.53;48.38
55171;BME280;41060;47.510;8.680;2023-11-21T00:49:01;96636.09;;;11.59;47.87
55171;BME280;41060;47.510;8.680;2023-11-21T00:51:29;96623.41;;;11.63;48.13
55171;BME280;41060;47.510;8.680;2023-11-21T00:53:56;96610.00;;;11.45;48.11
55171;BME280;41060;47.510;8.680;2023-11-21T00:56:24;96626.44;;;11.68;47.90
55171;BME280;41060;47.510;8.680;2023-11-21T00:58:51;96627.44;;;11.76;48.00
55171;BME280;41060;47.510;8.680;2023-11-21T01:01:19;96622.81;;;11.78;48.12
55171;BME280;41060;47.510;8.680;2023-11-21T01:03:47;96624.09;;;11.55;48.21
55171;BME280;41060;47.510;8.680;2023-11-21T01:06:14;96613.31;;;11.66;48.22
55171;BME280;41060;47.510;8.680;2023-11-21T01:08:41;96616.81;;;11.86;48.66
55171;BME280;41060;47.510;8.680;2023-11-21T01:11:08;96620.44;;;11.85;48.95
55171;BME280;41060;47.510;8.680;2023-11-21T01:13:37;96615.56;;;11.90;49.04
55171;BME280;41060;47.510;8.680;2023-11-21T01:16:05;96618.22;;;11.90;49.28
55171;BME280;41060;47.510;8.680;2023-11-21T01:18:32;96627.59;;;11.94;49.25
55171;BME280;41060;47.510;8.680;2023-11-21T01:21:03;96605.38;;;11.76;49.58
55171;BME280;41060;47.510;8.680;2023-11-21T01:23:30;96625.88;;;11.83;49.64
55171;BME280;41060;47.510;8.680;2023-11-21T01:25:59;96626.19;;;11.71;49.44
55171;BME280;41060;47.510;8.680;2023-11-21T01:28:25;96624.50;;;11.79;49.56
55171;BME280;41060;47.510;8.680;2023-11-21T01:30:54;96627.44;;;11.57;50.04
55171;BME280;41060;47.510;8.680;2023-11-21T01:33:21;96629.78;;;11.31;50.38
55171;BME280;41060;47.510;8.680;2023-11-21T01:35:50;96629.63;;;11.14;50.97
55171;BME280;41060;47.510;8.680;2023-11-21T01:38:18;96630.44;;;10.95;51.14
55171;BME280;41060;47.510;8.680;2023-11-21T01:40:44;96608.94;;;10.48;52.06
55171;BME280;41060;47.510;8.680;2023-11-21T01:43:11;96629.72;;;10.83;52.74
55171;BME280;41060;47.510;8.680;2023-11-21T01:45:38;96624.16;;;10.96;52.87
55171;BME280;41060;47.510;8.680;2023-11-21T01:48:06;96631.25;;;10.86;53.95
55171;BME280;41060;47.510;8.680;2023-11-21T01:50:33;96632.22;;;10.85;53.21
55171;BME280;41060;47.510;8.680;2023-11-21T01:53:00;96624.31;;;10.94;53.44
55171;BME280;41060;47.510;8.680;2023-11-21T01:55:28;96619.47;;;10.69;54.86
55171;BME280;41060;47.510;8.680;2023-11-21T01:57:56;96622.63;;;10.53;55.83
55171;BME280;41060;47.510;8.680;2023-11-21T02:00:23;96622.94;;;10.60;55.91
55171;BME280;41060;47.510;8.680;2023-11-21T02:02:51;96615.66;;;10.52;56.10
55171;BME280;41060;47.510;8.680;2023-11-21T02:05:20;96610.97;;;10.65;55.51
55171;BME280;41060;47.510;8.680;2023-11-21T02:07:51;96616.03;;;10.68;55.50
55171;BME280;41060;47.510;8.680;2023-11-21T02:10:18;96611.81;;;10.66;55.20
55171;BME280;41060;47.510;8.680;2023-11-21T02:12:48;96619.94;;;10.74;55.14
55171;BME280;41060;47.510;8.680;2023-11-21T02:15:17;96627.97;;;10.63;54.70
55171;BME280;41060;47.510;8.680;2023-11-21T02:17:45;96628.13;;;10.41;55.25
55171;BME280;41060;47.510;8.680;2023-11-21T02:20:13;96630.91;;;10.09;55.20
55171;BME280;41060;47.510;8.680;2023-11-21T02:22:43;96631.84;;;10.28;55.09
55171;BME280;41060;47.510;8.680;2023-11-21T02:25:11;96627.94;;;10.32;54.20
55171;BME280;41060;47.510;8.680;2023-11-21T02:27:38;96620.94;;;10.22;54.45
55171;BME280;41060;47.510;8.680;2023-11-21T02:30:05;96619.22;;;10.42;55.11
55171;BME280;41060;47.510;8.680;2023-11-21T02:32:33;96623.72;;;10.51;54.27
55171;BME280;41060;47.510;8.680;2023-11-21T02:35:00;96624.44;;;10.53;53.25
55171;BME280;41060;47.510;8.680;2023-11-21T02:37:33;96601.47;;;10.32;54.38
55171;BME280;41060;47.510;8.680;2023-11-21T02:40:01;96634.94;;;10.64;54.46
55171;BME280;41060;47.510;8.680;2023-11-21T02:42:36;96633.72;;;10.47;54.62
55171;BME280;41060;47.510;8.680;2023-11-21T02:45:04;96630.94;;;10.49;54.99
55171;BME280;41060;47.510;8.680;2023-11-21T02:47:30;96627.06;;;10.53;54.60
55171;BME280;41060;47.510;8.680;2023-11-21T02:49:57;96625.94;;;10.46;55.57
55171;BME280;41060;47.510;8.680;2023-11-21T02:52:24;96629.56;;;10.54;55.59
55171;BME280;41060;47.510;8.680;2023-11-21T02:54:50;96621.78;;;10.62;55.35
55171;BME280;41060;47.510;8.680;2023-11-21T02:57:20;96624.38;;;10.74;55.22
55171;BME280;41060;47.510;8.680;2023-11-21T02:59:48;96628.09;;;10.61;53.95
55171;BME280;41060;47.510;8.680;2023-11-21T03:02:15;96619.94;;;10.44;54.35
55171;BME280;41060;47.510;8.680;2023-11-21T03:04:42;96621.63;;;10.45;54.03
55171;BME280;41060;47.510;8.680;2023-11-21T03:07:09;96623.13;;;10.38;54.50
55171;BME280;41060;47.510;8.680;2023-11-21T03:09:36;96615.13;;;10.28;54.50
55171;BME280;41060;47.510;8.680;2023-11-21T03:12:03;96618.25;;;10.12;55.32
55171;BME280;41060;47.510;8.680;2023-11-21T03:14:30;96615.00;;;9.78;55.83
55171;BME280;41060;47.510;8.680;2023-11-21T03:16:58;96611.09;;;9.82;56.21
55171;BME280;41060;47.510;8.680;2023-11-21T03:19:24;96608.78;;;9.89;56.29
55171;BME280;41060;47.510;8.680;2023-11-21T03:21:51;96596.84;;;9.74;56.81
55171;BME280;41060;47.510;8.680;2023-11-21T03:24:21;96595.63;;;9.99;56.06
55171;BME280;41060;47.510;8.680;2023-11-21T03:26:49;96598.38;;;9.97;55.80
55171;BME280;41060;47.510;8.680;2023-11-21T03:29:17;96599.84;;;10.11;56.01
55171;BME280;41060;47.510;8.680;2023-11-21T03:31:46;96606.03;;;10.21;55.68
55171;BME280;41060;47.510;8.680;2023-11-21T03:34:23;96607.91;;;10.40;55.52
55171;BME280;41060;47.510;8.680;2023-11-21T03:36:52;96611.69;;;10.37;55.08
55171;BME280;41060;47.510;8.680;2023-11-21T03:39:19;96556.69;;;10.10;54.89
55171;BME280;41060;47.510;8.680;2023-11-21T03:41:46;96610.22;;;10.54;54.84
55171;BME280;41060;47.510;8.680;2023-11-21T03:44:13;96612.53;;;10.68;54.43
55171;BME280;41060;47.510;8.680;2023-11-21T03:46:40;96606.56;;;10.76;54.40
55171;BME280;41060;47.510;8.680;2023-11-21T03:49:06;96607.69;;;10.83;54.05
55171;BME280;41060;47.510;8.680;2023-11-21T03:51:35;96606.31;;;10.88;54.21
55171;BME280;41060;47.510;8.680;2023-11-21T03:54:02;96613.97;;;10.91;53.96
55171;BME280;41060;47.510;8.680;2023-11-21T03:56:29;96611.31;;;10.91;53.32
55171;BME280;41060;47.510;8.680;2023-11-21T03:58:56;96613.84;;;10.93;53.73
55171;BME280;41060;47.510;8.680;2023-11-21T04:01:24;96610.19;;;10.84;53.73
55171;BME280;41060;47.510;8.680;2023-11-21T04:03:50;96613.28;;;10.89;53.19
55171;BME280;41060;47.510;8.680;2023-11-21T04:06:18;96613.84;;;10.93;53.60
55171;BME280;41060;47.510;8.680;2023-11-21T04:08:46;96611.75;;;10.96;53.58
55171;BME280;41060;47.510;8.680;2023-11-21T04:11:15;96613.16;;;10.91;53.67
55171;BME280;41060;47.510;8.680;2023-11-21T04:13:42;96605.47;;;10.88;53.78
55171;BME280;41060;47.510;8.680;2023-11-21T04:16:09;96600.31;;;10.86;53.33
55171;BME280;41060;47.510;8.680;2023-11-21T04:18:36;96592.19;;;10.68;53.79
55171;BME280;41060;47.510;8.680;2023-11-21T04:21:04;96595.25;;;10.74;53.25
55171;BME280;41060;47.510;8.680;2023-11-21T04:23:31;96605.06;;;10.62;54.28
55171;BME280;41060;47.510;8.680;2023-11-21T04:25:59;96601.16;;;10.47;54.64
55171;BME280;41060;47.510;8.680;2023-11-21T04:28:28;96567.19;;;10.21;54.11
55171;BME280;41060;47.510;8.680;2023-11-21T04:30:54;96594.31;;;10.44;54.40
55171;BME280;41060;47.510;8.680;2023-11-21T04:33:21;96596.69;;;10.17;54.51
55171;BME280;41060;47.510;8.680;2023-11-21T04:35:48;96599.47;;;10.15;54.96
55171;BME280;41060;47.510;8.680;2023-11-21T04:38:15;96604.78;;;9.94;55.41
55171;BME280;41060;47.510;8.680;2023-11-21T04:40:41;96602.59;;;10.00;55.40
55171;BME280;41060;47.510;8.680;2023-11-21T04:43:13;96602.00;;;10.17;54.75
55171;BME280;41060;47.510;8.680;2023-11-21T04:45:39;96610.53;;;10.30;54.58
55171;BME280;41060;47.510;8.680;2023-11-21T04:48:06;96607.28;;;10.17;54.78
55171;BME280;41060;47.510;8.680;2023-11-21T04:50:34;96614.25;;;9.97;55.60
55171;BME280;41060;47.510;8.680;2023-11-21T04:53:00;96613.22;;;10.09;55.07
55171;BME280;41060;47.510;8.680;2023-11-21T04:55:27;96613.78;;;10.13;55.30
55171;BME280;41060;47.510;8.680;2023-11-21T04:57:54;96617.53;;;10.10;55.32
55171;BME280;41060;47.510;8.680;2023-11-21T05:00:22;96613.53;;;10.16;55.43
55171;BME280;41060;47.510;8.680;2023-11-21T05:02:51;96609.84;;;10.28;55.14
55171;BME280;41060;47.510;8.680;2023-11-21T05:05:19;96619.22;;;10.11;55.61
55171;BME280;41060;47.510;8.680;2023-11-21T05:07:45;96622.25;;;10.07;55.06
55171;BME280;41060;47.510;8.680;2023-11-21T05:10:12;96622.25;;;10.07;55.92
55171;BME280;41060;47.510;8.680;2023-11-21T05:12:41;96615.72;;;10.11;55.65
55171;BME280;41060;47.510;8.680;2023-11-21T05:15:08;96616.75;;;10.19;55.27
55171;BME280;41060;47.510;8.680;2023-11-21T05:17:37;96621.72;;;10.13;55.05
55171;BME280;41060;47.510;8.680;2023-11-21T05:20:08;96621.59;;;10.14;54.82
55171;BME280;41060;47.510;8.680;2023-11-21T05:22:35;96626.47;;;10.09;56.06
55171;BME280;41060;47.510;8.680;2023-11-21T05:25:02;96626.78;;;10.16;55.42
55171;BME280;41060;47.510;8.680;2023-11-21T05:27:30;96637.84;;;10.10;56.07
55171;BME280;41060;47.510;8.680;2023-11-21T05:29:57;96626.19;;;9.91;55.73
55171;BME280;41060;47.510;8.680;2023-11-21T05:32:23;96647.13;;;9.94;56.20
55171;BME280;41060;47.510;8.680;2023-11-21T05:34:52;96639.28;;;9.93;56.20
55171;BME280;41060;47.510;8.680;2023-11-21T05:37:18;96653.69;;;10.00;56.39
55171;BME280;41060;47.510;8.680;2023-11-21T05:39:45;96646.25;;;10.15;56.74
55171;BME280;41060;47.510;8.680;2023-11-21T05:42:12;96646.91;;;10.07;56.31
55171;BME280;41060;47.510;8.680;2023-11-21T05:44:41;96640.97;;;9.94;56.51
55171;BME280;41060;47.510;8.680;2023-11-21T05:47:08;96656.88;;;10.04;56.84
55171;BME280;41060;47.510;8.680;2023-11-21T05:49:35;96651.56;;;9.94;56.95
55171;BME280;41060;47.510;8.680;2023-11-21T05:52:04;96647.13;;;9.94;56.59
55171;BME280;41060;47.510;8.680;2023-11-21T05:54:31;96652.66;;;9.91;56.84
55171;BME280;41060;47.510;8.680;2023-11-21T05:57:00;96646.00;;;9.97;56.54
55171;BME280;41060;47.510;8.680;2023-11-21T05:59:26;96651.88;;;10.01;56.77
55171;BME280;41060;47.510;8.680;2023-11-21T06:01:53;96655.59;;;10.19;55.82
55171;BME280;41060;47.510;8.680;2023-11-21T06:04:22;96675.81;;;9.99;56.43
55171;BME280;41060;47.510;8.680;2023-11-21T06:06:50;96674.56;;;9.82;57.10
55171;BME280;41060;47.510;8.680;2023-11-21T06:09:20;96667.44;;;9.94;56.54
55171;BME280;41060;47.510;8.680;2023-11-21T06:11:47;96660.00;;;10.09;56.54
55171;BME280;41060;47.510;8.680;2023-11-21T06:14:14;96666.13;;;10.30;55.63
55171;BME280;41060;47.510;8.680;2023-11-21T06:16:43;96668.41;;;10.44;55.63
55171;BME280;41060;47.510;8.680;2023-11-21T06:19:11;96665.59;;;10.36;55.53
55171;BME280;41060;47.510;8.680;2023-11-21T06:21:38;96672.50;;;10.27;55.38
55171;BME280;41060;47.510;8.680;2023-11-21T06:24:05;96672.00;;;10.13;56.14
55171;BME280;41060;47.510;8.680;2023-11-21T06:26:34;96675.06;;;10.18;55.93
55171;BME280;41060;47.510;8.680;2023-11-21T06:29:00;96668.69;;;10.20;56.55
55171;BME280;41060;47.510;8.680;2023-11-21T06:31:28;96678.41;;;10.41;55.76
55171;BME280;41060;47.510;8.680;2023-11-21T06:33:55;96680.84;;;10.53;54.93
55171;BME280;41060;47.510;8.680;2023-11-21T06:36:23;96682.19;;;10.48;55.27
55171;BME280;41060;47.510;8.680;2023-11-21T06:38:49;96681.22;;;10.39;55.48
55171;BME280;41060;47.510;8.680;2023-11-21T06:41:16;96677.47;;;10.21;56.40
55171;BME280;41060;47.510;8.680;2023-11-21T06:43:44;96669.88;;;10.07;56.91
55171;BME280;41060;47.510;8.680;2023-11-21T06:46:11;96670.69;;;10.28;56.24
55171;BME280;41060;47.510;8.680;2023-11-21T06:48:41;96677.84;;;10.37;56.06
55171;BME280;41060;47.510;8.680;2023-11-21T06:51:08;96676.19;;;10.15;56.55
55171;BME280;41060;47.510;8.680;2023-11-21T06:53:36;96684.91;;;10.06;57.09
55171;BME280;41060;47.510;8.680;2023-11-21T06:56:04;96685.28;;;10.22;56.62
55171;BME280;41060;47.510;8.680;2023-11-21T06:58:32;96686.25;;;10.21;56.62
55171;BME280;41060;47.510;8.680;2023-11-21T07:01:00;96684.78;;;10.08;56.45
55171;BME280;41060;47.510;8.680;2023-11-21T07:03:27;96688.31;;;9.97;57.09
55171;BME280;41060;47.510;8.680;2023-11-21T07:05:54;96692.38;;;10.01;56.84
55171;BME280;41060;47.510;8.680;2023-11-21T07:08:21;96692.22;;;9.82;57.70
55171;BME280;41060;47.510;8.680;2023-11-21T07:10:48;96694.72;;;9.94;57.15
55171;BME280;41060;47.510;8.680;2023-11-21T07:13:15;96601.41;;;9.30;57.75
55171;BME280;41060;47.510;8.680;2023-11-21T07:15:41;96700.97;;;10.14;56.73
55171;BME280;41060;47.510;8.680;2023-11-21T07:18:10;96699.41;;;10.12;57.45
55171;BME280;41060;47.510;8.680;2023-11-21T07:20:37;96702.31;;;10.09;57.57
55171;BME280;41060;47.510;8.680;2023-11-21T07:23:03;96695.03;;;10.22;57.14
55171;BME280;41060;47.510;8.680;2023-11-21T07:25:31;96700.25;;;10.12;57.29
55171;BME280;41060;47.510;8.680;2023-11-21T07:27:58;96705.22;;;10.26;56.99
55171;BME280;41060;47.510;8.680;2023-11-21T07:30:25;96707.69;;;10.39;57.10
55171;BME280;41060;47.510;8.680;2023-11-21T07:32:52;96709.38;;;10.50;56.93
55171;BME280;41060;47.510;8.680;2023-11-21T07:35:20;96705.13;;;10.58;56.48
55171;BME280;41060;47.510;8.680;2023-11-21T07:37:47;96712.44;;;10.45;56.82
55171;BME280;41060;47.510;8.680;2023-11-21T07:40:14;96676.84;;;10.08;57.20
55171;BME280;41060;47.510;8.680;2023-11-21T07:42:42;96707.34;;;10.32;57.33
55171;BME280;41060;47.510;8.680;2023-11-21T07:45:11;96704.53;;;10.24;57.36
55171;BME280;41060;47.510;8.680;2023-11-21T07:47:39;96711.03;;;10.20;57.46
55171;BME280;41060;47.510;8.680;2023-11-21T07:50:06;96712.47;;;10.24;57.21
55171;BME280;41060;47.510;8.680;2023-11-21T07:52:35;96715.69;;;10.07;57.97
55171;BME280;41060;47.510;8.680;2023-11-21T07:55:02;96718.56;;;10.04;57.84
55171;BME280;41060;47.510;8.680;2023-11-21T07:57:29;96722.78;;;10.07;57.82
55171;BME280;41060;47.510;8.680;2023-11-21T07:59:55;96719.03;;;10.09;57.63
55171;BME280;41060;47.510;8.680;2023-11-21T08:02:23;96714.25;;;10.03;57.76
55171;BME280;41060;47.510;8.680;2023-11-21T08:04:49;96725.09;;;10.00;57.66
55171;BME280;41060;47.510;8.680;2023-11-21T08:07:17;96714.09;;;9.84;58.21
55171;BME280;41060;47.510;8.680;2023-11-21T08:09:48;96717.91;;;9.91;58.77
55171;BME280;41060;47.510;8.680;2023-11-21T08:12:15;96717.16;;;10.00;58.50
55171;BME280;41060;47.510;8.680;2023-11-21T08:14:42;96713.66;;;10.00;58.03
55171;BME280;41060;47.510;8.680;2023-11-21T08:17:10;96713.72;;;9.88;58.30
55171;BME280;41060;47.510;8.680;2023-11-21T08:19:36;96670.03;;;9.73;58.39
55171;BME280;41060;47.510;8.680;2023-11-21T08:22:05;96712.53;;;9.81;59.23
55171;BME280;41060;47.510;8.680;2023-11-21T08:24:34;96718.16;;;9.88;59.17
55171;BME280;41060;47.510;8.680;2023-11-21T08:27:02;96712.59;;;10.02;58.62
55171;BME280;41060;47.510;8.680;2023-11-21T08:29:29;96718.63;;;9.93;58.51
55171;BME280;41060;47.510;8.680;2023-11-21T08:31:57;96717.03;;;10.02;58.73
55171;BME280;41060;47.510;8.680;2023-11-21T08:34:25;96717.88;;;10.02;58.05
55171;BME280;41060;47.510;8.680;2023-11-21T08:36:51;96729.22;;;10.14;57.87
55171;BME280;41060;47.510;8.680;2023-11-21T08:39:18;96728.31;;;10.04;57.70
55171;BME280;41060;47.510;8.680;2023-11-21T08:41:45;96730.50;;;10.19;57.69
55171;BME280;41060;47.510;8.680;2023-11-21T08:44:13;96733.88;;;10.21;57.78
55171;BME280;41060;47.510;8.680;2023-11-21T08:46:42;96734.63;;;10.12;58.10
55171;BME280;41060;47.510;8.680;2023-11-21T08:49:10;96732.06;;;10.01;57.92
55171;BME280;41060;47.510;8.680;2023-11-21T08:51:37;96740.63;;;9.93;58.36
55171;BME280;41060;47.510;8.680;2023-11-21T08:54:07;96733.03;;;10.00;58.43
55171;BME280;41060;47.510;8.680;2023-11-21T08:56:37;96733.22;;;10.08;58.36
55171;BME280;41060;47.510;8.680;2023-11-21T08:59:03;96732.31;;;9.98;58.52
55171;BME280;41060;47.510;8.680;2023-11-21T09:01:32;96724.66;;;10.16;58.20
55171;BME280;41060;47.510;8.680;2023-11-21T09:03:58;96734.72;;;10.22;58.15
55171;BME280;41060;47.510;8.680;2023-11-21T09:06:25;96735.28;;;10.25;57.93
55171;BME280;41060;47.510;8.680;2023-11-21T09:08:52;96731.03;;;10.34;57.53
55171;BME280;41060;47.510;8.680;2023-11-21T09:11:18;96735.94;;;10.39;58.07
55171;BME280;41060;47.510;8.680;2023-11-21T09:13:45;96735.47;;;10.54;57.60
55171;BME280;41060;47.510;8.680;2023-11-21T09:16:17;96743.28;;;10.56;56.94
55171;BME280;41060;47.510;8.680;2023-11-21T09:18:46;96749.75;;;10.63;57.00
55171;BME280;41060;47.510;8.680;2023-11-21T09:21:14;96755.53;;;10.57;56.91
55171;BME280;41060;47.510;8.680;2023-11-21T09:23:40;96763.75;;;10.54;57.44
55171;BME280;41060;47.510;8.680;2023-11-21T09:26:12;96763.91;;;10.62;57.11
55171;BME280;41060;47.510;8.680;2023-11-21T09:28:41;96763.00;;;10.84;56.31
55171;BME280;41060;47.510;8.680;2023-11-21T09:31:11;96762.44;;;10.90;56.19
55171;BME280;41060;47.510;8.680;2023-11-21T09:33:42;96766.81;;;11.00;56.06
55171;BME280;41060;47.510;8.680;2023-11-21T09:36:12;96761.28;;;11.13;55.59
55171;BME280;41060;47.510;8.680;2023-11-21T09:38:39;96767.16;;;11.17;55.87
55171;BME280;41060;47.510;8.680;2023-11-21T09:41:14;96763.06;;;11.03;55.58
55171;BME280;41060;47.510;8.680;2023-11-21T09:43:44;96768.00;;;11.17;56.20
55171;BME280;41060;47.510;8.680;2023-11-21T09:46:13;96771.31;;;11.09;56.30
55171;BME280;41060;47.510;8.680;2023-11-21T09:48:48;96774.22;;;11.06;56.40
55171;BME280;41060;47.510;8.680;2023-11-21T09:51:19;96764.06;;;11.12;56.55
55171;BME280;41060;47.510;8.680;2023-11-21T09:53:49;96761.72;;;11.18;56.53
55171;BME280;41060;47.510;8.680;2023-11-21T09:56:18;96767.44;;;11.23;56.25
55171;BME280;41060;47.510;8.680;2023-11-21T09:58:52;96762.81;;;11.16;56.16
55171;BME280;41060;47.510;8.680;2023-11-21T10:01:20;96773.25;;;11.07;56.46
55171;BME280;41060;47.510;8.680;2023-11-21T10:03:47;96766.91;;;11.20;56.37
55171;BME280;41060;47.510;8.680;2023-11-21T10:06:15;96764.28;;;11.39;56.44
55171;BME280;41060;47.510;8.680;2023-11-21T10:08:45;96768.06;;;11.46;56.46
55171;BME280;41060;47.510;8.680;2023-11-21T10:11:14;96758.22;;;11.67;55.67
55171;BME280;41060;47.510;8.680;2023-11-21T10:13:43;96755.03;;;11.83;55.30
55171;BME280;41060;47.510;8.680;2023-11-21T10:16:17;96738.97;;;11.65;54.99
55171;BME280;41060;47.510;8.680;2023-11-21T10:18:48;96763.41;;;11.88;55.07
55171;BME280;41060;47.510;8.680;2023-11-21T10:21:18;96756.53;;;11.66;54.72
55171;BME280;41060;47.510;8.680;2023-11-21T10:23:48;96764.59;;;11.45;55.39
55171;BME280;41060;47.510;8.680;2023-11-21T10:26:15;96759.19;;;11.66;55.38
55171;BME280;41060;47.510;8.680;2023-11-21T10:28:57;96760.94;;;11.37;55.09
55171;BME280;41060;47.510;8.680;2023-11-21T10:31:26;96752.59;;;11.01;55.57
55171;BME280;41060;47.510;8.680;2023-11-21T10:33:53;96752.03;;;10.98;56.03
55171;BME280;41060;47.510;8.680;2023-11-21T10:36:25;96747.69;;;10.97;56.74
55171;BME280;41060;47.510;8.680;2023-11-21T10:38:54;96731.03;;;10.85;56.50
55171;BME280;41060;47.510;8.680;2023-11-21T10:41:22;96756.47;;;11.37;56.25
55171;BME280;41060;47.510;8.680;2023-11-21T10:43:53;96754.50;;;11.20;55.15
55171;BME280;41060;47.510;8.680;2023-11-21T10:46:21;96754.78;;;11.27;55.23
55171;BME280;41060;47.510;8.680;2023-11-21T10:48:52;96759.44;;;11.04;55.87
55171;BME280;41060;47.510;8.680;2023-11-21T10:51:20;96759.31;;;11.05;55.26
55171;BME280;41060;47.510;8.680;2023-11-21T10:53:47;96760.41;;;11.03;55.16
55171;BME280;41060;47.510;8.680;2023-11-21T10:56:19;96749.59;;;10.85;55.45
55171;BME280;41060;47.510;8.680;2023-11-21T10:58:48;96760.34;;;10.84;55.89
55171;BME280;41060;47.510;8.680;2023-11-21T11:01:20;96760.09;;;10.96;55.98
55171;BME280;41060;47.510;8.680;2023-11-21T11:03:51;96758.72;;;11.02;55.90
55171;BME280;41060;47.510;8.680;2023-11-21T11:06:21;96751.84;;;11.20;55.30
55171;BME280;41060;47.510;8.680;2023-11-21T11:08:49;96714.88;;;11.19;55.07
55171;BME280;41060;47.510;8.680;2023-11-21T11:11:18;96751.63;;;11.42;54.86
55171;BME280;41060;47.510;8.680;2023-11-21T11:13:44;96745.38;;;11.63;55.17
55171;BME280;41060;47.510;8.680;2023-11-21T11:16:12;96749.28;;;11.87;53.88
55171;BME280;41060;47.510;8.680;2023-11-21T11:18:43;96749.56;;;11.65;53.65
55171;BME280;41060;47.510;8.680;2023-11-21T11:21:20;96745.53;;;11.71;54.26
55171;BME280;41060;47.510;8.680;2023-11-21T11:26:59;96745.69;;;12.17;53.06
55171;BME280;41060;47.510;8.680;2023-11-21T11:29:35;96742.47;;;12.33;52.72
55171;BME280;41060;47.510;8.680;2023-11-21T11:32:09;96740.91;;;12.40;52.45
55171;BME280;41060;47.510;8.680;2023-11-21T11:34:44;96746.00;;;12.14;52.40
55171;BME280;41060;47.510;8.680;2023-11-21T11:37:12;96742.34;;;11.96;53.35
55171;BME280;41060;47.510;8.680;2023-11-21T11:39:41;96749.47;;;12.05;53.23
55171;BME280;41060;47.510;8.680;2023-11-21T11:42:12;96709.97;;;11.93;53.13
55171;BME280;41060;47.510;8.680;2023-11-21T11:44:50;96745.56;;;12.29;52.77
55171;BME280;41060;47.510;8.680;2023-11-21T11:47:24;96742.75;;;12.30;53.58
55171;BME280;41060;47.510;8.680;2023-11-21T11:50:06;96748.06;;;12.20;53.70
55171;BME280;41060;47.510;8.680;2023-11-21T11:52:40;96739.53;;;11.78;54.70
55171;BME280;41060;47.510;8.680;2023-11-21T11:55:09;96756.22;;;11.40;55.96
55171;BME280;41060;47.510;8.680;2023-11-21T11:57:42;96759.41;;;11.44;56.10
55171;BME280;41060;47.510;8.680;2023-11-21T12:00:19;96743.91;;;11.30;56.87
55171;BME280;41060;47.510;8.680;2023-11-21T12:02:47;96753.09;;;11.26;56.11
55171;BME280;41060;47.510;8.680;2023-11-21T12:05:16;96749.91;;;11.32;54.05
55171;BME280;41060;47.510;8.680;2023-11-21T12:07:45;96745.31;;;11.34;53.76
55171;BME280;41060;47.510;8.680;2023-11-21T12:10:14;96744.97;;;11.58;53.94
55171;BME280;41060;47.510;8.680;2023-11-21T12:12:49;96743.81;;;11.60;54.22
55171;BME280;41060;47.510;8.680;2023-11-21T12:15:19;96745.91;;;11.66;55.08
55171;BME280;41060;47.510;8.680;2023-11-21T12:17:49;96726.09;;;11.61;55.30
55171;BME280;41060;47.510;8.680;2023-11-21T12:20:18;96745.06;;;11.66;55.89
55171;BME280;41060;47.510;8.680;2023-11-21T12:22:50;96754.69;;;11.47;56.52
55171;BME280;41060;47.510;8.680;2023-11-21T12:25:18;96759.56;;;11.52;56.70
55171;BME280;41060;47.510;8.680;2023-11-21T12:27:45;96734.31;;;11.48;56.69
55171;BME280;41060;47.510;8.680;2023-11-21T12:30:18;96760.53;;;11.51;56.33
55171;BME280;41060;47.510;8.680;2023-11-21T12:32:47;96757.22;;;11.49;56.89
55171;BME280;41060;47.510;8.680;2023-11-21T12:35:14;96730.00;;;11.07;57.42
55171;BME280;41060;47.510;8.680;2023-11-21T12:37:43;96763.69;;;11.26;57.67
55171;BME280;41060;47.510;8.680;2023-11-21T12:40:10;96768.03;;;11.36;57.17
55171;BME280;41060;47.510;8.680;2023-11-21T12:42:41;96772.38;;;11.28;57.23
55171;BME280;41060;47.510;8.680;2023-11-21T12:45:10;96770.69;;;11.27;58.17
55171;BME280;41060;47.510;8.680;2023-11-21T12:47:47;96771.91;;;11.23;58.46
55171;BME280;41060;47.510;8.680;2023-11-21T12:50:15;96763.56;;;11.27;58.50
55171;BME280;41060;47.510;8.680;2023-11-21T12:52:47;96758.56;;;11.34;57.43
55171;BME280;41060;47.510;8.680;2023-11-21T12:55:15;96761.66;;;11.39;56.58
55171;BME280;41060;47.510;8.680;2023-11-21T12:57:48;96766.94;;;11.39;56.20
55171;BME280;41060;47.510;8.680;2023-11-21T13:00:18;96768.38;;;11.53;55.95
55171;BME280;41060;47.510;8.680;2023-11-21T13:02:55;96773.25;;;11.47;55.61
55171;BME280;41060;47.510;8.680;2023-11-21T13:05:24;96776.44;;;11.51;55.59
55171;BME280;41060;47.510;8.680;2023-11-21T13:07:51;96778.44;;;11.49;55.62
55171;BME280;41060;47.510;8.680;2023-11-21T13:10:22;96770.19;;;11.52;55.85